createdAt,value
2017-08-24T00:00:56.595Z,13.45
2017-08-24T00:03:24.849Z,13.33
2017-08-24T00:05:53.470Z,13.20
2017-08-24T00:08:21.264Z,13.43
2017-08-24T00:10:49.642Z,13.36
2017-08-24T00:13:17.322Z,13.32
2017-08-24T00:15:45.078Z,13.21
2017-08-24T00:18:12.821Z,13.27
2017-08-24T00:20:40.565Z,13.09
2017-08-24T00:23:08.230Z,13.11
2017-08-24T00:25:35.922Z,13.02
2017-08-24T00:28:03.713Z,12.99
2017-08-24T00:30:31.424Z,12.98
2017-08-24T00:32:59.129Z,12.93
2017-08-24T00:35:26.879Z,12.89
2017-08-24T00:37:54.677Z,12.92
2017-08-24T00:40:23.453Z,12.91
2017-08-24T00:42:52.347Z,12.81
2017-08-24T00:45:22.401Z,12.86
2017-08-24T00:47:50.709Z,12.88
2017-08-24T00:50:18.489Z,12.84
2017-08-24T00:52:48.226Z,12.77
2017-08-24T00:55:16.133Z,12.85
2017-08-24T00:57:44.948Z,12.74
2017-08-24T01:00:12.705Z,12.76
2017-08-24T01:02:41.995Z,12.75
2017-08-24T01:05:12.728Z,12.72
2017-08-24T01:07:40.603Z,12.85
2017-08-24T01:10:08.319Z,12.74
2017-08-24T01:12:36.095Z,12.74
2017-08-24T01:15:03.885Z,12.58
2017-08-24T01:17:31.778Z,12.52
2017-08-24T01:20:00.478Z,12.62
2017-08-24T01:22:28.330Z,12.67
2017-08-24T01:24:58.174Z,12.51
2017-08-24T01:27:25.989Z,12.49
2017-08-24T01:29:53.693Z,12.52
2017-08-24T01:32:22.244Z,12.50
2017-08-24T01:34:50.011Z,12.39
2017-08-24T01:37:18.919Z,12.53
2017-08-24T01:39:46.627Z,12.61
2017-08-24T01:42:14.402Z,12.53
2017-08-24T01:44:42.518Z,12.51
2017-08-24T01:47:10.275Z,12.45
2017-08-24T01:49:38.003Z,12.38
2017-08-24T01:52:06.659Z,12.50
2017-08-24T01:54:36.420Z,12.36
2017-08-24T01:57:05.081Z,12.32
2017-08-24T01:59:32.871Z,12.38
2017-08-24T02:02:02.123Z,12.28
2017-08-24T02:04:29.805Z,12.33
2017-08-24T02:06:57.548Z,12.31
2017-08-24T02:09:25.223Z,12.29
2017-08-24T02:11:53.036Z,12.22
2017-08-24T02:14:21.656Z,12.35
2017-08-24T02:16:50.289Z,12.23
2017-08-24T02:19:18.184Z,12.17
2017-08-24T02:21:45.871Z,12.16
2017-08-24T02:24:13.580Z,12.17
2017-08-24T02:26:41.301Z,12.11
2017-08-24T02:29:09.838Z,12.14
2017-08-24T02:31:38.452Z,12.03
2017-08-24T02:34:06.113Z,11.99
2017-08-24T02:36:33.867Z,11.92
2017-08-24T02:39:02.800Z,12.02
2017-08-24T02:41:30.524Z,11.95
2017-08-24T02:43:58.255Z,11.91
2017-08-24T02:46:26.620Z,11.96
2017-08-24T02:48:55.999Z,11.94
2017-08-24T02:51:23.785Z,11.94
2017-08-24T02:53:52.243Z,11.94
2017-08-24T02:56:21.113Z,11.93
2017-08-24T02:58:48.838Z,11.84
2017-08-24T03:01:16.618Z,11.90
2017-08-24T03:03:44.352Z,11.94
2017-08-24T03:06:12.163Z,11.94
2017-08-24T03:08:39.849Z,11.90
2017-08-24T03:11:07.573Z,11.79
2017-08-24T03:13:35.360Z,11.91
2017-08-24T03:16:04.051Z,11.78
2017-08-24T03:18:31.730Z,11.74
2017-08-24T03:20:59.574Z,11.81
2017-08-24T03:23:27.248Z,11.74
2017-08-24T03:25:55.000Z,11.73
2017-08-24T03:28:22.755Z,11.67
2017-08-24T03:30:50.706Z,11.64
2017-08-24T03:33:18.643Z,11.61
2017-08-24T03:35:48.214Z,11.59
2017-08-24T03:38:18.320Z,11.67
2017-08-24T03:40:46.151Z,11.70
2017-08-24T03:43:13.877Z,11.68
2017-08-24T03:45:41.582Z,11.66
2017-08-24T03:48:09.494Z,11.60
2017-08-24T03:50:37.182Z,11.69
2017-08-24T03:53:05.202Z,11.56
2017-08-24T03:55:33.646Z,11.49
2017-08-24T03:58:01.492Z,11.54
2017-08-24T04:00:29.247Z,11.52
2017-08-24T04:02:57.012Z,11.49
2017-08-24T04:05:24.757Z,11.58
2017-08-24T04:07:52.541Z,11.55
2017-08-24T04:10:20.318Z,11.51
2017-08-24T04:12:48.006Z,11.49
2017-08-24T04:15:15.800Z,11.45
2017-08-24T04:17:43.568Z,11.63
2017-08-24T04:20:11.294Z,11.58
2017-08-24T04:22:39.014Z,11.55
2017-08-24T04:25:06.792Z,11.61
2017-08-24T04:27:34.540Z,11.56
2017-08-24T04:30:02.245Z,11.64
2017-08-24T04:32:31.490Z,11.53
2017-08-24T04:34:59.175Z,11.61
2017-08-24T04:37:27.193Z,11.66
2017-08-24T04:39:54.979Z,11.73
2017-08-24T04:42:24.058Z,11.78
2017-08-24T04:44:51.839Z,11.78
2017-08-24T04:47:20.475Z,11.91
2017-08-24T04:49:48.223Z,11.95
2017-08-24T04:52:15.976Z,12.02
2017-08-24T04:54:43.705Z,12.05
2017-08-24T04:57:13.198Z,12.07
2017-08-24T04:59:41.030Z,12.00
2017-08-24T05:02:08.771Z,12.03
2017-08-24T05:04:36.481Z,12.21
2017-08-24T05:07:04.198Z,12.25
2017-08-24T05:09:32.007Z,12.26
2017-08-24T05:11:59.692Z,12.43
2017-08-24T05:14:27.405Z,12.98
2017-08-24T05:16:55.160Z,14.05
2017-08-24T05:19:22.888Z,14.42
2017-08-24T05:21:50.621Z,14.11
2017-08-24T05:24:18.379Z,14.02
2017-08-24T05:26:46.677Z,14.17
2017-08-24T05:29:14.367Z,14.17
2017-08-24T05:31:42.053Z,14.23
2017-08-24T05:34:09.825Z,14.28
2017-08-24T05:36:37.519Z,14.33
2017-08-24T05:39:05.246Z,14.03
2017-08-24T05:41:32.999Z,14.45
2017-08-24T05:44:01.374Z,14.37
2017-08-24T05:46:29.127Z,14.42
2017-08-24T05:48:56.860Z,14.65
2017-08-24T05:51:24.564Z,14.73
2017-08-24T05:53:52.337Z,14.42
2017-08-24T05:56:20.057Z,14.76
2017-08-24T05:58:48.752Z,14.31
2017-08-24T06:01:16.981Z,13.98
2017-08-24T06:03:44.711Z,13.63
2017-08-24T06:06:12.425Z,13.53
2017-08-24T06:08:40.175Z,13.48
2017-08-24T06:11:07.974Z,13.41
2017-08-24T06:13:35.813Z,13.64
2017-08-24T06:16:04.459Z,13.77
2017-08-24T06:18:32.274Z,13.85
2017-08-24T06:20:59.971Z,14.01
2017-08-24T06:23:27.741Z,14.35
2017-08-24T06:25:55.436Z,14.22
2017-08-24T06:28:24.027Z,14.22
2017-08-24T06:30:51.768Z,14.59
2017-08-24T06:33:19.520Z,15.29
2017-08-24T06:35:47.227Z,15.23
2017-08-24T06:38:15.037Z,15.27
2017-08-24T06:40:43.735Z,15.79
2017-08-24T06:43:11.485Z,16.07
2017-08-24T06:45:39.658Z,16.39
2017-08-24T06:48:07.342Z,16.21
2017-08-24T06:50:35.183Z,16.24
2017-08-24T06:53:02.966Z,16.18
2017-08-24T06:55:30.737Z,16.40
2017-08-24T06:57:58.512Z,16.53
2017-08-24T07:00:26.272Z,16.87
2017-08-24T07:02:53.967Z,16.33
2017-08-24T07:05:21.729Z,16.93
2017-08-24T07:07:49.503Z,16.72
2017-08-24T07:10:17.355Z,17.02
2017-08-24T07:12:45.099Z,17.07
2017-08-24T07:15:12.825Z,16.86
2017-08-24T07:17:40.580Z,16.94
2017-08-24T07:20:08.270Z,17.20
2017-08-24T07:22:36.025Z,17.26
2017-08-24T07:25:03.749Z,17.95
2017-08-24T07:27:32.543Z,17.95
2017-08-24T07:30:00.334Z,17.46
2017-08-24T07:32:28.166Z,17.92
2017-08-24T07:34:55.898Z,17.91
2017-08-24T07:37:23.807Z,18.01
2017-08-24T07:39:51.546Z,18.16
2017-08-24T07:42:19.294Z,18.31
2017-08-24T07:44:47.151Z,18.35
2017-08-24T07:47:14.910Z,18.44
2017-08-24T07:49:42.683Z,18.48
2017-08-24T07:52:10.379Z,18.38
2017-08-24T07:54:38.189Z,18.39
2017-08-24T07:57:05.966Z,18.64
2017-08-24T07:59:33.687Z,19.07
2017-08-24T08:02:02.537Z,19.44
2017-08-24T08:04:30.651Z,19.06
2017-08-24T08:06:58.397Z,19.92
2017-08-24T08:09:26.078Z,19.70
2017-08-24T08:11:54.156Z,20.17
2017-08-24T08:14:21.904Z,20.10
2017-08-24T08:16:50.275Z,20.10
2017-08-24T08:19:18.001Z,20.54
2017-08-24T08:21:45.762Z,20.38
2017-08-24T08:24:13.555Z,20.67
2017-08-24T08:26:41.671Z,20.83
2017-08-24T08:29:09.438Z,21.00
2017-08-24T08:31:37.207Z,20.85
2017-08-24T08:34:04.920Z,20.20
2017-08-24T08:36:32.733Z,20.24
2017-08-24T08:39:00.496Z,20.99
2017-08-24T08:41:28.234Z,20.88
2017-08-24T08:43:56.062Z,20.53
2017-08-24T08:46:23.796Z,20.62
2017-08-24T08:48:51.649Z,20.82
2017-08-24T08:51:19.555Z,20.71
2017-08-24T08:53:47.258Z,20.70
2017-08-24T08:56:15.033Z,20.55
2017-08-24T08:58:42.798Z,20.84
2017-08-24T09:01:10.603Z,21.18
2017-08-24T09:03:38.374Z,21.23
2017-08-24T09:06:06.199Z,21.48
2017-08-24T09:08:33.973Z,21.43
2017-08-24T09:11:01.706Z,21.42
2017-08-24T09:13:29.511Z,21.69
2017-08-24T09:15:57.251Z,21.67
2017-08-24T09:18:24.990Z,21.71
2017-08-24T09:20:52.731Z,22.15
2017-08-24T09:23:20.512Z,21.99
2017-08-24T09:25:48.229Z,21.65
2017-08-24T09:28:16.088Z,21.67
2017-08-24T09:30:43.832Z,22.37
2017-08-24T09:33:11.601Z,21.65
2017-08-24T09:35:39.386Z,21.72
2017-08-24T09:38:07.160Z,21.86
2017-08-24T09:40:34.971Z,22.15
2017-08-24T09:43:02.727Z,22.41
2017-08-24T09:45:30.492Z,22.72
2017-08-24T09:47:59.434Z,22.37
2017-08-24T09:50:27.214Z,22.31
2017-08-24T09:52:54.942Z,22.56
2017-08-24T09:55:22.678Z,22.69
2017-08-24T09:57:50.450Z,22.88
2017-08-24T10:00:18.158Z,23.46
2017-08-24T10:02:45.924Z,23.48
2017-08-24T10:05:13.724Z,23.58
2017-08-24T10:07:41.487Z,23.36
2017-08-24T10:10:09.332Z,23.94
2017-08-24T10:12:37.083Z,23.88
2017-08-24T10:15:04.950Z,24.41
2017-08-24T10:17:32.708Z,23.96
2017-08-24T10:20:00.412Z,24.10
2017-08-24T10:22:28.147Z,24.44
2017-08-24T10:24:55.830Z,24.51
2017-08-24T10:27:23.516Z,24.78
2017-08-24T10:29:51.330Z,25.04
2017-08-24T10:32:19.146Z,25.14
2017-08-24T10:34:46.855Z,25.58
2017-08-24T10:37:14.552Z,25.15
2017-08-24T10:39:42.337Z,25.06
2017-08-24T10:42:10.142Z,24.95
2017-08-24T10:44:37.917Z,24.95
2017-08-24T10:47:05.676Z,24.90
2017-08-24T10:49:33.380Z,24.77
2017-08-24T10:52:01.201Z,25.22
2017-08-24T10:54:28.914Z,25.47
2017-08-24T10:56:56.655Z,25.47
2017-08-24T10:59:24.392Z,25.69
2017-08-24T11:01:52.155Z,25.74
2017-08-24T11:04:19.990Z,25.77
2017-08-24T11:06:47.697Z,25.86
2017-08-24T11:09:15.450Z,26.46
2017-08-24T11:11:43.144Z,26.89
2017-08-24T11:14:10.931Z,26.98
2017-08-24T11:16:38.824Z,27.01
2017-08-24T11:19:06.643Z,26.96
2017-08-24T11:21:34.446Z,26.79
2017-08-24T11:24:02.375Z,26.89
2017-08-24T11:26:30.816Z,26.94
2017-08-24T11:28:58.743Z,27.05
2017-08-24T11:31:26.460Z,27.29
2017-08-24T11:33:54.218Z,27.13
2017-08-24T11:36:21.937Z,27.27
2017-08-24T11:38:49.710Z,26.73
2017-08-24T11:41:17.494Z,26.43
2017-08-24T11:43:45.404Z,26.63
2017-08-24T11:46:13.214Z,26.69
2017-08-24T11:48:41.044Z,26.80
2017-08-24T11:51:08.741Z,26.96
2017-08-24T11:53:36.524Z,27.31
2017-08-24T11:56:04.374Z,27.58
2017-08-24T11:58:32.083Z,27.71
2017-08-24T12:00:59.861Z,27.79
2017-08-24T12:03:27.637Z,27.97
2017-08-24T12:05:56.522Z,27.87
2017-08-24T12:08:24.268Z,28.02
2017-08-24T12:10:52.030Z,28.07
2017-08-24T12:13:19.807Z,27.41
2017-08-24T12:15:47.909Z,27.91
2017-08-24T12:18:15.683Z,27.87
2017-08-24T12:20:43.455Z,28.13
2017-08-24T12:23:11.277Z,28.12
2017-08-24T12:25:39.512Z,27.93
2017-08-24T12:28:07.342Z,28.05
2017-08-24T12:30:35.167Z,28.12
2017-08-24T12:33:02.941Z,27.96
2017-08-24T12:35:30.757Z,27.85
2017-08-24T12:37:58.571Z,28.31
2017-08-24T12:40:26.379Z,28.42
2017-08-24T12:42:54.157Z,28.84
2017-08-24T12:45:22.806Z,28.69
2017-08-24T12:47:50.578Z,28.84
2017-08-24T12:50:18.406Z,28.68
2017-08-24T12:52:46.263Z,28.84
2017-08-24T12:55:14.039Z,28.86
2017-08-24T12:57:43.573Z,29.08
2017-08-24T13:00:11.288Z,29.02
2017-08-24T13:02:39.042Z,29.12
2017-08-24T13:05:06.880Z,29.37
2017-08-24T13:07:34.649Z,29.25
2017-08-24T13:10:02.585Z,28.84
2017-08-24T13:12:30.364Z,28.76
2017-08-24T13:14:58.134Z,28.76
2017-08-24T13:17:25.867Z,29.17
2017-08-24T13:19:54.902Z,29.19
2017-08-24T13:22:23.042Z,28.78
2017-08-24T13:24:50.793Z,28.93
2017-08-24T13:27:19.220Z,29.07
2017-08-24T13:29:46.972Z,29.01
2017-08-24T13:32:14.817Z,29.03
2017-08-24T13:34:42.562Z,29.19
2017-08-24T13:37:10.355Z,29.18
2017-08-24T13:39:39.104Z,29.43
2017-08-24T13:42:07.831Z,29.63
2017-08-24T13:44:35.565Z,29.55
2017-08-24T13:47:03.338Z,29.39
2017-08-24T13:49:31.181Z,29.27
2017-08-24T13:51:58.914Z,29.43
2017-08-24T13:54:26.653Z,29.48
2017-08-24T13:56:54.516Z,29.67
2017-08-24T13:59:22.325Z,29.97
2017-08-24T14:02:12.395Z,29.66
2017-08-24T14:04:40.248Z,29.68
2017-08-24T14:07:08.257Z,29.86
2017-08-24T14:09:36.091Z,29.55
2017-08-24T14:12:03.872Z,29.53
2017-08-24T14:14:31.792Z,29.78
2017-08-24T14:17:00.501Z,29.85
2017-08-24T14:19:28.316Z,29.90
2017-08-24T14:21:56.066Z,29.95
2017-08-24T14:24:23.856Z,29.95
2017-08-24T14:26:52.323Z,29.77
2017-08-24T14:29:20.062Z,30.03
2017-08-24T14:31:47.975Z,29.80
2017-08-24T14:34:15.735Z,29.80
2017-08-24T14:36:43.470Z,29.79
2017-08-24T14:39:11.294Z,29.75
2017-08-24T14:41:39.075Z,29.90
2017-08-24T14:44:06.912Z,29.81
2017-08-24T14:46:34.782Z,29.24
2017-08-24T14:49:02.566Z,29.73
2017-08-24T14:51:30.361Z,29.60
2017-08-24T14:53:58.124Z,29.64
2017-08-24T14:56:25.925Z,29.41
2017-08-24T14:58:53.665Z,29.38
2017-08-24T15:01:21.438Z,29.67
2017-08-24T15:03:49.217Z,29.71
2017-08-24T15:06:17.005Z,29.72
2017-08-24T15:08:46.423Z,29.41
2017-08-24T15:11:14.193Z,29.25
2017-08-24T15:13:41.996Z,29.35
2017-08-24T15:16:09.736Z,29.35
2017-08-24T15:18:37.491Z,29.19
2017-08-24T15:21:05.249Z,29.23
2017-08-24T15:23:33.127Z,29.23
2017-08-24T15:26:01.455Z,29.31
2017-08-24T15:28:30.167Z,29.38
2017-08-24T15:30:58.033Z,29.06
2017-08-24T15:33:25.832Z,28.87
2017-08-24T15:35:53.596Z,28.70
2017-08-24T15:38:22.492Z,28.50
2017-08-24T15:40:50.315Z,28.08
2017-08-24T15:43:18.180Z,27.89
2017-08-24T15:45:45.977Z,27.70
2017-08-24T15:48:13.805Z,27.29
2017-08-24T15:50:41.542Z,27.34
2017-08-24T15:53:10.412Z,26.91
2017-08-24T15:55:38.206Z,26.76
2017-08-24T15:58:05.947Z,26.52
2017-08-24T16:00:33.737Z,26.19
2017-08-24T16:03:02.042Z,26.06
2017-08-24T16:05:29.788Z,25.96
2017-08-24T16:07:57.994Z,25.72
2017-08-24T16:10:25.847Z,25.59
2017-08-24T16:12:53.652Z,25.48
2017-08-24T16:15:21.740Z,25.49
2017-08-24T16:17:49.518Z,25.56
2017-08-24T16:20:17.295Z,25.35
2017-08-24T16:22:45.108Z,25.15
2017-08-24T16:25:12.906Z,25.09
2017-08-24T16:27:40.613Z,24.82
2017-08-24T16:30:09.178Z,24.87
2017-08-24T16:32:37.720Z,24.86
2017-08-24T16:35:05.780Z,24.62
2017-08-24T16:37:34.188Z,24.59
2017-08-24T16:40:02.593Z,24.45
2017-08-24T16:42:31.711Z,24.32
2017-08-24T16:45:01.240Z,24.33
2017-08-24T16:47:29.372Z,24.03
2017-08-24T16:49:58.176Z,23.99
2017-08-24T16:52:25.967Z,24.13
2017-08-24T16:54:53.675Z,23.99
2017-08-24T16:57:21.492Z,23.90
2017-08-24T16:59:49.197Z,23.79
2017-08-24T17:02:17.863Z,23.88
2017-08-24T17:04:45.624Z,23.69
2017-08-24T17:07:13.342Z,23.62
2017-08-24T17:09:41.208Z,23.62
2017-08-24T17:12:08.967Z,23.58
2017-08-24T17:14:36.772Z,23.52
2017-08-24T17:17:04.592Z,23.44
2017-08-24T17:19:32.330Z,23.49
2017-08-24T17:22:00.090Z,23.60
2017-08-24T17:24:27.802Z,23.50
2017-08-24T17:26:55.563Z,23.52
2017-08-24T17:29:23.261Z,23.50
2017-08-24T17:31:50.970Z,23.36
2017-08-24T17:34:19.528Z,23.32
2017-08-24T17:36:47.334Z,23.20
2017-08-24T17:39:15.115Z,23.09
2017-08-24T17:41:42.812Z,23.16
2017-08-24T17:44:10.777Z,23.08
2017-08-24T17:46:38.630Z,23.04
2017-08-24T17:49:06.389Z,22.95
2017-08-24T17:51:34.157Z,22.92
2017-08-24T17:54:01.912Z,22.93
2017-08-24T17:56:29.673Z,22.84
2017-08-24T17:58:57.466Z,22.83
2017-08-24T18:01:25.503Z,22.74
2017-08-24T18:03:53.347Z,22.65
2017-08-24T18:06:21.814Z,22.69
2017-08-24T18:08:49.517Z,22.55
2017-08-24T18:11:17.271Z,22.40
2017-08-24T18:13:46.703Z,22.27
2017-08-24T18:16:14.609Z,22.17
2017-08-24T18:18:42.374Z,22.02
2017-08-24T18:21:10.403Z,21.85
2017-08-24T18:23:38.560Z,21.92
2017-08-24T18:26:06.872Z,21.89
2017-08-24T18:28:34.815Z,21.65
2017-08-24T18:31:02.885Z,21.65
2017-08-24T18:33:30.620Z,21.81
2017-08-24T18:35:58.715Z,21.94
2017-08-24T18:38:26.716Z,21.97
2017-08-24T18:40:54.574Z,21.96
2017-08-24T18:43:22.342Z,21.86
2017-08-24T18:45:50.274Z,21.73
2017-08-24T18:48:18.036Z,21.64
2017-08-24T18:50:46.201Z,21.53
2017-08-24T18:53:14.041Z,21.48
2017-08-24T18:55:42.005Z,21.40
2017-08-24T18:58:09.995Z,21.18
2017-08-24T19:00:37.814Z,21.37
2017-08-24T19:03:05.839Z,21.36
2017-08-24T19:05:34.491Z,21.18
2017-08-24T19:08:02.247Z,21.20
2017-08-24T19:10:29.991Z,21.22
2017-08-24T19:12:58.603Z,21.23
2017-08-24T19:15:26.303Z,21.08
2017-08-24T19:17:54.044Z,20.91
2017-08-24T19:20:22.700Z,20.91
2017-08-24T19:22:50.531Z,20.79
2017-08-24T19:25:18.400Z,20.83
2017-08-24T19:27:46.180Z,20.73
2017-08-24T19:30:14.021Z,20.70
2017-08-24T19:32:41.940Z,20.68
2017-08-24T19:35:10.611Z,20.49
2017-08-24T19:37:38.326Z,20.54
2017-08-24T19:40:06.117Z,20.50
2017-08-24T19:42:33.916Z,20.48
2017-08-24T19:45:01.661Z,20.46
2017-08-24T19:47:29.490Z,20.41
2017-08-24T19:49:57.217Z,20.37
2017-08-24T19:52:25.017Z,20.42
2017-08-24T19:54:52.815Z,20.15
2017-08-24T19:57:20.558Z,20.25
2017-08-24T19:59:48.368Z,20.32
2017-08-24T20:02:16.190Z,20.29
2017-08-24T20:04:44.654Z,20.35
2017-08-24T20:07:12.466Z,20.27
2017-08-24T20:09:40.232Z,20.37
2017-08-24T20:12:07.992Z,20.44
2017-08-24T20:14:35.685Z,20.37
2017-08-24T20:17:04.455Z,20.30
2017-08-24T20:19:32.292Z,20.25
2017-08-24T20:21:59.996Z,20.23
2017-08-24T20:24:27.811Z,20.60
2017-08-24T20:26:55.580Z,20.71
2017-08-24T20:29:23.987Z,20.76
2017-08-24T20:31:51.833Z,20.73
2017-08-24T20:34:19.591Z,20.66
2017-08-24T20:36:47.296Z,20.60
2017-08-24T20:39:15.050Z,20.51
2017-08-24T20:41:42.778Z,20.64
2017-08-24T20:44:10.761Z,20.71
2017-08-24T20:46:38.931Z,20.71
2017-08-24T20:49:06.952Z,20.61
2017-08-24T20:51:34.782Z,20.50
2017-08-24T20:54:02.566Z,20.49
2017-08-24T20:56:30.364Z,20.43
2017-08-24T20:58:58.065Z,20.43
2017-08-24T21:01:25.859Z,20.48
2017-08-24T21:03:53.711Z,20.56
2017-08-24T21:06:21.449Z,20.48
2017-08-24T21:08:49.231Z,20.42
2017-08-24T21:11:16.982Z,20.41
2017-08-24T21:13:44.824Z,20.51
2017-08-24T21:16:12.623Z,20.64
2017-08-24T21:18:40.430Z,20.87
2017-08-24T21:21:08.906Z,20.67
2017-08-24T21:23:36.690Z,20.59
2017-08-24T21:26:04.650Z,20.53
2017-08-24T21:28:33.275Z,20.46
2017-08-24T21:31:01.070Z,20.58
2017-08-24T21:33:28.825Z,20.65
2017-08-24T21:35:56.584Z,20.69
2017-08-24T21:38:24.412Z,20.70
2017-08-24T21:40:52.158Z,20.80
2017-08-24T21:43:19.927Z,20.94
2017-08-24T21:45:47.618Z,21.10
2017-08-24T21:48:15.342Z,21.05
2017-08-24T21:50:43.962Z,20.96
2017-08-24T21:53:11.666Z,20.93
2017-08-24T21:55:39.418Z,20.35
2017-08-24T21:58:07.177Z,20.42
2017-08-24T22:00:34.874Z,20.28
2017-08-24T22:03:02.639Z,20.26
2017-08-24T22:05:31.176Z,20.32
2017-08-24T22:07:58.962Z,20.02
2017-08-24T22:10:26.744Z,20.04
2017-08-24T22:12:54.506Z,19.99
2017-08-24T22:15:22.212Z,19.90
2017-08-24T22:17:49.929Z,19.73
2017-08-24T22:20:17.644Z,19.80
2017-08-24T22:22:45.412Z,19.72
2017-08-24T22:25:14.265Z,19.35
2017-08-24T22:27:41.976Z,19.42
2017-08-24T22:30:09.799Z,19.40
2017-08-24T22:32:37.575Z,19.43
2017-08-24T22:35:06.607Z,19.39
2017-08-24T22:37:34.325Z,19.38
2017-08-24T22:40:02.098Z,19.15
2017-08-24T22:42:29.880Z,18.90
2017-08-24T22:44:57.667Z,18.99
2017-08-24T22:47:25.369Z,18.80
2017-08-24T22:49:53.119Z,18.66
2017-08-24T22:52:20.869Z,18.69
2017-08-24T22:54:54.043Z,18.49
2017-08-24T22:57:27.323Z,18.59
2017-08-24T23:00:01.403Z,18.80
2017-08-24T23:02:34.662Z,18.66
2017-08-24T23:05:02.627Z,18.54
2017-08-24T23:07:30.419Z,18.14
2017-08-24T23:09:58.316Z,18.27
2017-08-24T23:12:26.009Z,18.42
2017-08-24T23:14:53.771Z,18.40
2017-08-24T23:17:21.566Z,18.38
2017-08-24T23:19:49.361Z,18.34
2017-08-24T23:22:17.167Z,18.37
2017-08-24T23:24:45.053Z,18.26
2017-08-24T23:27:12.832Z,18.22
2017-08-24T23:29:40.662Z,18.15
2017-08-24T23:32:08.386Z,18.02
2017-08-24T23:34:36.155Z,17.91
2017-08-24T23:37:04.230Z,17.90
2017-08-24T23:39:31.962Z,18.03
2017-08-24T23:41:59.750Z,17.99
2017-08-24T23:44:27.727Z,17.70
2017-08-24T23:46:55.462Z,17.75
2017-08-24T23:49:23.246Z,17.82
2017-08-24T23:51:51.482Z,17.91
2017-08-24T23:54:19.266Z,17.89
2017-08-24T23:56:47.090Z,18.00
2017-08-24T23:59:15.438Z,17.85
